createdAt,value
2022-10-05T00:04:51.286Z,5.48
2022-10-05T00:09:53.207Z,5.44
2022-10-05T00:14:55.095Z,5.4
2022-10-05T00:19:57.078Z,5.35
2022-10-05T00:24:58.749Z,5.29
2022-10-05T00:30:00.017Z,5.23
2022-10-05T00:35:08.407Z,5.17
2022-10-05T00:40:10.261Z,5.12
2022-10-05T00:45:12.325Z,5.09
2022-10-05T00:50:13.844Z,5.06
2022-10-05T00:55:15.044Z,5.02
2022-10-05T01:00:16.423Z,4.98
2022-10-05T01:10:19.611Z,4.91
2022-10-05T01:15:21.623Z,4.91
2022-10-05T01:20:23.307Z,4.87
2022-10-05T01:25:25.416Z,4.85
2022-10-05T01:30:27.259Z,4.84
2022-10-05T01:35:28.787Z,4.81
2022-10-05T01:40:30.914Z,4.78
2022-10-05T01:45:32.847Z,4.73
2022-10-05T01:50:34.475Z,4.69
2022-10-05T01:55:35.842Z,4.66
2022-10-05T02:00:37.932Z,4.63
2022-10-05T02:05:39.983Z,4.6
2022-10-05T02:10:41.380Z,4.59
2022-10-05T02:15:43.686Z,4.56
2022-10-05T02:20:44.787Z,4.55
2022-10-05T02:25:46.587Z,4.55
2022-10-05T02:30:48.481Z,4.51
2022-10-05T02:35:49.959Z,4.48
2022-10-05T02:40:51.212Z,4.46
2022-10-05T02:45:53.061Z,4.46
2022-10-05T02:50:54.954Z,4.42
2022-10-05T02:55:56.649Z,4.42
2022-10-05T03:00:58.415Z,4.4
2022-10-05T03:06:00.323Z,4.38
2022-10-05T03:11:02.127Z,4.35
2022-10-05T03:16:03.680Z,4.32
2022-10-05T03:21:05.713Z,4.3
2022-10-05T03:26:07.502Z,4.27
2022-10-05T03:31:09.009Z,4.23
2022-10-05T03:36:10.402Z,4.19
2022-10-05T03:41:11.900Z,4.15
2022-10-05T03:46:13.843Z,4.13
2022-10-05T03:51:15.024Z,4.12
2022-10-05T03:56:17.166Z,4.08
2022-10-05T04:01:18.554Z,4.05
2022-10-05T04:06:20.642Z,4.03
2022-10-05T04:11:22.463Z,4
2022-10-05T04:16:24.646Z,3.95
2022-10-05T04:21:25.904Z,3.91
2022-10-05T04:26:27.815Z,3.86
2022-10-05T04:31:29.187Z,3.82
2022-10-05T04:36:30.814Z,3.78
2022-10-05T04:41:32.520Z,3.76
2022-10-05T04:46:34.269Z,3.74
2022-10-05T04:51:35.715Z,3.73
2022-10-05T04:56:37.843Z,3.73
2022-10-05T05:01:39.505Z,3.7
2022-10-05T05:06:41.512Z,3.68
2022-10-05T05:11:42.839Z,3.65
2022-10-05T05:16:44.844Z,3.64
2022-10-05T05:21:46.411Z,3.62
2022-10-05T05:26:48.476Z,3.6
2022-10-05T05:31:49.809Z,3.59
2022-10-05T05:36:51.396Z,3.58
2022-10-05T05:41:53.454Z,3.57
2022-10-05T05:47:04.283Z,3.56
2022-10-05T05:51:57.136Z,3.59
2022-10-05T05:56:58.670Z,3.63
2022-10-05T06:02:00.238Z,3.67
2022-10-05T06:07:01.778Z,3.76
2022-10-05T06:12:03.445Z,3.93
2022-10-05T06:22:06.582Z,4.07
2022-10-05T06:32:09.969Z,4.21
2022-10-05T06:42:13.004Z,4.42
2022-10-05T07:02:18.995Z,5.3
2022-10-05T07:12:22.964Z,5.8
2022-10-05T07:22:27.374Z,6.39
2022-10-05T07:27:28.177Z,6.66
2022-10-05T07:32:30.148Z,7.02
2022-10-05T07:37:31.283Z,7.36
2022-10-05T07:42:32.893Z,7.71
2022-10-05T07:47:34.929Z,8.03
2022-10-05T07:52:36.998Z,8.5
2022-10-05T07:57:38.412Z,9.08
2022-10-05T08:02:40.026Z,9.53
2022-10-05T08:07:41.691Z,10.12
2022-10-05T08:12:43.119Z,10.68
2022-10-05T08:17:44.511Z,11.51
2022-10-05T08:22:45.680Z,11.81
2022-10-05T08:27:47.426Z,12.3
2022-10-05T08:32:48.737Z,12.68
2022-10-05T08:37:50.522Z,13.11
2022-10-05T08:42:52.376Z,13.62
2022-10-05T08:47:53.939Z,14.04
2022-10-05T08:52:56.085Z,14.41
2022-10-05T08:57:58.264Z,14.75
2022-10-05T09:03:00.525Z,14.93
2022-10-05T09:08:02.599Z,15.2
2022-10-05T09:13:03.937Z,15.41
2022-10-05T09:18:05.719Z,15.66
2022-10-05T09:23:07.109Z,15.97
2022-10-05T09:28:09.101Z,16.19
2022-10-05T09:33:10.399Z,16.44
2022-10-05T09:38:11.777Z,16.77
2022-10-05T09:43:13.869Z,16.98
2022-10-05T09:48:15.419Z,17.23
2022-10-05T09:53:17.090Z,17.51
2022-10-05T09:58:18.707Z,17.75
2022-10-05T10:03:20.163Z,17.84
2022-10-05T10:08:21.372Z,17.9
2022-10-05T10:13:23.362Z,18.01
2022-10-05T10:18:24.609Z,18.04
2022-10-05T10:23:26.043Z,18.07
2022-10-05T10:28:27.461Z,18.29
2022-10-05T10:33:28.793Z,18.51
2022-10-05T10:38:30.052Z,18.62
2022-10-05T10:43:31.689Z,18.89
2022-10-05T10:48:33.747Z,18.98
2022-10-05T10:53:35.682Z,19.11
2022-10-05T10:58:37.843Z,19.27
2022-10-05T11:03:39.313Z,19.44
2022-10-05T11:08:40.786Z,19.7
2022-10-05T11:13:42.433Z,19.77
2022-10-05T11:18:44.474Z,19.78
2022-10-05T11:23:45.672Z,19.93
2022-10-05T11:28:47.104Z,19.94
2022-10-05T11:33:49.278Z,20.08
2022-10-05T11:38:50.816Z,20.18
2022-10-05T11:43:52.937Z,20.26
2022-10-05T11:48:54.804Z,20.27
2022-10-05T11:53:56.503Z,20.27
2022-10-05T11:58:58.658Z,20.29
2022-10-05T12:04:00.915Z,20.32
2022-10-05T12:09:02.743Z,20.43
2022-10-05T12:14:03.985Z,20.48
2022-10-05T12:19:06.068Z,20.52
2022-10-05T12:24:07.825Z,20.58
2022-10-05T12:29:09.361Z,20.6
2022-10-05T12:34:11.190Z,20.64
2022-10-05T12:39:12.807Z,20.67
2022-10-05T12:44:14.413Z,20.68
2022-10-05T12:49:16.218Z,20.69
2022-10-05T12:54:17.600Z,20.7
2022-10-05T12:59:19.341Z,20.75
2022-10-05T13:04:21.164Z,20.84
2022-10-05T13:09:22.829Z,20.86
2022-10-05T13:14:24.201Z,20.87
2022-10-05T13:19:25.433Z,20.83
2022-10-05T13:24:27.440Z,20.91
2022-10-05T13:29:29.254Z,20.88
2022-10-05T13:34:30.956Z,20.9
2022-10-05T13:39:32.429Z,20.95
2022-10-05T13:44:33.922Z,20.97
2022-10-05T13:49:35.722Z,20.98
2022-10-05T13:54:37.345Z,21
2022-10-05T13:59:39.050Z,21
2022-10-05T14:04:40.447Z,20.9
2022-10-05T14:09:42.071Z,20.93
2022-10-05T14:14:44.164Z,20.92
2022-10-05T14:19:45.570Z,20.92
2022-10-05T14:24:47.683Z,20.89
2022-10-05T14:29:49.445Z,20.85
2022-10-05T14:34:50.771Z,20.81
2022-10-05T14:39:52.558Z,20.78
2022-10-05T14:44:53.772Z,20.73
2022-10-05T14:49:55.841Z,20.68
2022-10-05T14:54:57.461Z,20.62
2022-10-05T14:59:58.901Z,20.55
2022-10-05T15:05:00.880Z,20.51
2022-10-05T15:10:02.660Z,20.44
2022-10-05T15:15:04.414Z,20.36
2022-10-05T15:20:06.547Z,20.2
2022-10-05T15:25:07.956Z,20.1
2022-10-05T15:30:09.722Z,20
2022-10-05T15:35:11.456Z,19.87
2022-10-05T15:40:13.575Z,19.78
2022-10-05T15:45:15.536Z,19.65
2022-10-05T15:50:17.161Z,19.49
2022-10-05T15:55:18.766Z,19.33
2022-10-05T16:00:20.066Z,19.12
2022-10-05T16:05:21.813Z,18.94
2022-10-05T16:10:23.927Z,18.76
2022-10-05T16:15:25.874Z,18.59
2022-10-05T16:20:27.266Z,18.44
2022-10-05T16:25:28.535Z,18.29
2022-10-05T16:30:30.293Z,18.11
2022-10-05T16:35:31.877Z,17.92
2022-10-05T16:40:33.735Z,17.74
2022-10-05T16:45:44.948Z,17.54
2022-10-05T16:50:37.837Z,17.33
2022-10-05T16:55:39.430Z,17.09
2022-10-05T17:00:41.182Z,16.85
2022-10-05T17:05:42.758Z,16.62
2022-10-05T17:10:44.369Z,16.41
2022-10-05T17:15:46.276Z,16.17
2022-10-05T17:20:54.593Z,15.97
2022-10-05T17:25:55.805Z,15.75
2022-10-05T17:30:57.055Z,15.54
2022-10-05T17:35:58.730Z,15.33
2022-10-05T17:41:00.750Z,15.16
2022-10-05T17:46:02.880Z,14.98
2022-10-05T17:51:04.338Z,14.81
2022-10-05T17:56:05.786Z,14.63
2022-10-05T18:01:07.375Z,14.45
2022-10-05T18:06:08.811Z,14.3
2022-10-05T18:11:10.042Z,14.15
2022-10-05T18:16:12.076Z,14
2022-10-05T18:21:14.097Z,13.85
2022-10-05T18:26:15.215Z,13.71
2022-10-05T18:31:16.913Z,13.55
2022-10-05T18:36:18.656Z,13.42
2022-10-05T18:41:20.685Z,13.31
2022-10-05T18:46:22.369Z,13.16
2022-10-05T18:51:23.562Z,13.06
2022-10-05T18:56:24.841Z,12.95
2022-10-05T19:01:26.821Z,12.85
2022-10-05T19:06:28.824Z,12.75
2022-10-05T19:11:30.946Z,12.65
2022-10-05T19:16:32.810Z,12.57
2022-10-05T19:21:34.644Z,12.47
2022-10-05T19:31:37.379Z,12.29
2022-10-05T19:36:39.147Z,12.2
2022-10-05T19:41:40.968Z,12.12
2022-10-05T19:46:43.055Z,12.03
2022-10-05T19:51:44.306Z,11.92
2022-10-05T19:56:45.632Z,11.86
2022-10-05T20:01:47.271Z,11.77
2022-10-05T20:06:48.571Z,11.66
2022-10-05T20:11:50.367Z,11.58
2022-10-05T20:16:52.481Z,11.5
2022-10-05T20:21:54.050Z,11.42
2022-10-05T20:26:55.766Z,11.37
2022-10-05T20:31:57.801Z,11.31
2022-10-05T20:36:59.995Z,11.26
2022-10-05T20:42:01.140Z,11.21
2022-10-05T21:17:11.941Z,10.87
2022-10-05T21:22:13.633Z,10.82
2022-10-05T21:27:15.532Z,10.78
2022-10-05T21:42:21.263Z,10.61
2022-10-05T21:52:23.769Z,10.49
2022-10-05T21:57:25.834Z,10.42
2022-10-05T22:17:32.658Z,10.16
2022-10-05T22:22:34.436Z,10.08
2022-10-05T22:27:35.818Z,10.01
2022-10-05T22:32:37.488Z,9.93
2022-10-05T22:37:38.836Z,9.85
2022-10-05T22:42:40.165Z,9.79
2022-10-05T22:47:41.663Z,9.71
2022-10-05T22:52:43.297Z,9.63
2022-10-05T22:57:44.652Z,9.58
2022-10-05T23:02:46.805Z,9.53
2022-10-05T23:07:48.297Z,9.46
2022-10-05T23:12:49.928Z,9.39
2022-10-05T23:17:51.858Z,9.32
2022-10-05T23:22:53.690Z,9.25
2022-10-05T23:27:55.809Z,9.2
2022-10-05T23:32:56.994Z,9.16
2022-10-05T23:37:58.691Z,9.09
2022-10-05T23:43:00.571Z,9.03
2022-10-05T23:48:02.178Z,8.97
2022-10-05T23:53:03.494Z,8.92
2022-10-05T23:58:04.837Z,8.87
